createdAt,value
2022-08-17T00:00:43.957Z,20.20
2022-08-17T00:01:51.694Z,20.20
2022-08-17T00:03:02.839Z,20.20
2022-08-17T00:04:09.311Z,20.20
2022-08-17T00:05:15.368Z,20.20
2022-08-17T00:06:20.816Z,20.20
2022-08-17T00:07:23.187Z,20.20
2022-08-17T00:08:32.009Z,20.20
2022-08-17T00:09:33.624Z,20.10
2022-08-17T00:10:35.669Z,20.10
2022-08-17T00:11:41.519Z,20.10
2022-08-17T00:12:44.741Z,20.10
2022-08-17T00:13:49.854Z,20.10
2022-08-17T00:14:51.434Z,20.10
2022-08-17T00:15:58.583Z,20.10
2022-08-17T00:17:00.364Z,20.10
2022-08-17T00:18:02.060Z,20.10
2022-08-17T00:19:08.676Z,20.10
2022-08-17T00:20:12.177Z,20.10
2022-08-17T00:21:15.147Z,20.10
2022-08-17T00:22:31.395Z,20.10
2022-08-17T00:23:37.284Z,20.10
2022-08-17T00:24:38.916Z,20.00
2022-08-17T00:25:42.752Z,20.10
2022-08-17T00:26:45.486Z,20.10
2022-08-17T00:27:47.473Z,20.00
2022-08-17T00:28:49.477Z,20.00
2022-08-17T00:29:53.530Z,20.00
2022-08-17T00:30:55.271Z,20.00
2022-08-17T00:31:56.844Z,20.00
2022-08-17T00:33:11.651Z,19.90
2022-08-17T00:34:18.892Z,19.90
2022-08-17T00:35:25.459Z,19.90
2022-08-17T00:36:27.616Z,19.90
2022-08-17T00:37:29.219Z,19.90
2022-08-17T00:38:30.919Z,19.80
2022-08-17T00:39:32.617Z,19.70
2022-08-17T00:40:44.237Z,19.80
2022-08-17T00:41:46.850Z,19.80
2022-08-17T00:42:49.556Z,19.80
2022-08-17T00:43:58.427Z,19.80
2022-08-17T00:45:00.069Z,19.80
2022-08-17T00:46:07.079Z,19.80
2022-08-17T00:47:08.772Z,19.80
2022-08-17T00:48:26.199Z,19.80
2022-08-17T00:49:31.989Z,19.80
2022-08-17T00:50:34.498Z,19.80
2022-08-17T00:51:50.969Z,19.80
2022-08-17T00:52:55.914Z,19.80
2022-08-17T00:54:20.374Z,19.80
2022-08-17T00:55:23.952Z,19.70
2022-08-17T00:56:41.794Z,19.70
2022-08-17T00:57:46.976Z,19.60
2022-08-17T00:58:51.724Z,19.60
2022-08-17T01:00:02.707Z,19.50
2022-08-17T01:01:08.380Z,19.50
2022-08-17T01:02:12.830Z,19.50
2022-08-17T01:03:22.104Z,19.50
2022-08-17T01:04:26.187Z,19.40
2022-08-17T01:05:31.167Z,19.40
2022-08-17T01:06:33.422Z,19.40
2022-08-17T01:07:35.619Z,19.40
2022-08-17T01:08:40.567Z,19.40
2022-08-17T01:09:43.957Z,19.50
2022-08-17T01:10:58.522Z,19.40
2022-08-17T01:12:06.157Z,19.50
2022-08-17T01:13:11.170Z,19.50
2022-08-17T01:14:14.389Z,19.50
2022-08-17T01:15:16.746Z,19.50
2022-08-17T01:16:28.368Z,19.50
2022-08-17T01:17:30.268Z,19.50
2022-08-17T01:18:32.918Z,19.50
2022-08-17T01:19:39.013Z,19.50
2022-08-17T01:20:52.430Z,19.40
2022-08-17T01:22:15.035Z,19.40
2022-08-17T01:23:21.318Z,19.50
2022-08-17T01:24:23.698Z,19.50
2022-08-17T01:25:25.423Z,19.50
2022-08-17T01:26:28.302Z,19.50
2022-08-17T01:27:30.815Z,19.50
2022-08-17T01:28:55.436Z,19.50
2022-08-17T01:30:05.134Z,19.50
2022-08-17T01:31:30.836Z,19.40
2022-08-17T01:32:32.924Z,19.40
2022-08-17T01:33:35.267Z,19.40
2022-08-17T01:34:42.807Z,19.40
2022-08-17T01:35:51.818Z,19.40
2022-08-17T01:36:54.146Z,19.40
2022-08-17T01:37:59.111Z,19.30
2022-08-17T01:39:01.254Z,19.30
2022-08-17T01:40:31.364Z,19.20
2022-08-17T01:41:34.763Z,19.20
2022-08-17T01:42:59.247Z,19.10
2022-08-17T01:44:06.103Z,19.10
2022-08-17T01:45:13.499Z,19.00
2022-08-17T01:46:23.518Z,19.00
2022-08-17T01:47:29.864Z,19.00
2022-08-17T01:48:34.905Z,19.00
2022-08-17T01:49:37.160Z,19.00
2022-08-17T01:50:42.899Z,19.00
2022-08-17T01:51:44.753Z,19.00
2022-08-17T01:52:50.402Z,19.00
2022-08-17T01:53:57.818Z,19.00
2022-08-17T01:54:59.955Z,19.00
2022-08-17T01:56:11.707Z,19.00
2022-08-17T01:57:13.973Z,19.00
2022-08-17T01:58:15.928Z,19.00
2022-08-17T01:59:19.430Z,18.90
2022-08-17T02:00:21.876Z,18.90
2022-08-17T02:01:27.048Z,18.90
2022-08-17T02:02:31.634Z,18.90
2022-08-17T02:03:35.108Z,18.90
2022-08-17T02:04:37.364Z,18.90
2022-08-17T02:05:40.035Z,18.90
2022-08-17T02:06:52.879Z,18.90
2022-08-17T02:08:00.286Z,18.90
2022-08-17T02:09:04.432Z,18.90
2022-08-17T02:10:18.986Z,18.90
2022-08-17T02:11:23.452Z,18.90
2022-08-17T02:12:39.236Z,18.90
2022-08-17T02:13:46.026Z,18.90
2022-08-17T02:14:53.416Z,18.90
2022-08-17T02:15:58.436Z,18.90
2022-08-17T02:17:00.487Z,18.90
2022-08-17T02:19:12.487Z,18.90
2022-08-17T02:20:14.872Z,18.90
2022-08-17T02:21:17.177Z,18.90
2022-08-17T02:22:19.294Z,18.90
2022-08-17T02:23:24.187Z,18.90
2022-08-17T02:25:00.857Z,18.90
2022-08-17T02:25:58.945Z,18.90
2022-08-17T02:27:00.584Z,18.80
2022-08-17T02:28:03.940Z,18.80
2022-08-17T02:29:05.587Z,18.80
2022-08-17T02:30:59.985Z,18.70
2022-08-17T02:32:34.597Z,18.60
2022-08-17T02:33:43.298Z,18.60
2022-08-17T02:34:45.482Z,18.70
2022-08-17T02:35:47.593Z,18.70
2022-08-17T02:36:49.188Z,18.70
2022-08-17T02:37:51.807Z,18.70
2022-08-17T02:38:58.507Z,18.70
2022-08-17T02:40:00.312Z,18.80
2022-08-17T02:41:02.596Z,18.80
2022-08-17T02:42:04.994Z,18.90
2022-08-17T02:43:09.884Z,18.90
2022-08-17T02:44:12.266Z,18.80
2022-08-17T02:45:16.740Z,18.80
2022-08-17T02:46:19.426Z,18.80
2022-08-17T02:47:21.023Z,18.70
2022-08-17T02:48:29.723Z,18.70
2022-08-17T02:49:33.016Z,18.60
2022-08-17T02:50:34.780Z,18.60
2022-08-17T02:51:36.423Z,18.50
2022-08-17T02:52:43.318Z,18.40
2022-08-17T02:53:46.641Z,18.40
2022-08-17T02:54:48.260Z,18.30
2022-08-17T02:55:50.004Z,18.20
2022-08-17T02:56:53.367Z,18.20
2022-08-17T02:57:55.896Z,18.10
2022-08-17T02:58:57.472Z,18.10
2022-08-17T02:59:59.187Z,18.00
2022-08-17T03:01:00.840Z,18.00
2022-08-17T03:02:11.377Z,18.00
2022-08-17T03:03:18.587Z,17.90
2022-08-17T03:04:20.201Z,17.90
2022-08-17T03:05:24.543Z,17.90
2022-08-17T03:06:26.165Z,17.90
2022-08-17T03:07:27.740Z,17.90
2022-08-17T03:08:30.172Z,17.90
2022-08-17T03:09:31.912Z,17.90
2022-08-17T03:10:33.913Z,17.90
2022-08-17T03:11:35.574Z,18.00
2022-08-17T03:12:39.680Z,17.90
2022-08-17T03:13:41.354Z,17.90
2022-08-17T03:14:43.577Z,17.90
2022-08-17T03:15:47.344Z,17.90
2022-08-17T03:16:48.921Z,17.90
2022-08-17T03:17:52.295Z,17.90
2022-08-17T03:18:54.981Z,17.90
2022-08-17T03:19:56.568Z,18.00
2022-08-17T03:21:01.414Z,18.00
2022-08-17T03:22:34.679Z,18.00
2022-08-17T03:23:27.947Z,18.00
2022-08-17T03:24:31.593Z,18.00
2022-08-17T03:25:39.171Z,18.00
2022-08-17T03:26:40.862Z,18.00
2022-08-17T03:27:42.565Z,18.10
2022-08-17T03:28:49.862Z,18.00
2022-08-17T03:29:51.490Z,17.90
2022-08-17T03:30:53.310Z,18.00
2022-08-17T03:31:55.670Z,18.00
2022-08-17T03:33:00.033Z,18.00
2022-08-17T03:34:01.633Z,18.00
2022-08-17T03:35:03.440Z,18.00
2022-08-17T03:36:05.497Z,18.00
2022-08-17T03:37:07.357Z,18.00
2022-08-17T03:38:10.710Z,18.00
2022-08-17T03:39:12.338Z,18.00
2022-08-17T03:40:14.204Z,18.00
2022-08-17T03:41:16.150Z,18.00
2022-08-17T03:42:32.168Z,18.00
2022-08-17T03:43:34.734Z,18.00
2022-08-17T03:44:36.419Z,18.00
2022-08-17T03:45:57.521Z,18.00
2022-08-17T03:47:17.785Z,18.00
2022-08-17T03:48:38.343Z,18.00
2022-08-17T03:49:58.657Z,18.00
2022-08-17T03:51:19.176Z,18.00
2022-08-17T03:52:39.647Z,18.00
2022-08-17T03:54:29.567Z,18.00
2022-08-17T03:55:50.075Z,17.90
2022-08-17T03:56:59.239Z,17.90
2022-08-17T03:58:00.912Z,17.90
2022-08-17T03:59:02.489Z,17.90
2022-08-17T04:00:05.231Z,17.90
2022-08-17T04:01:07.198Z,17.90
2022-08-17T04:02:17.352Z,17.90
2022-08-17T04:03:19.246Z,17.90
2022-08-17T04:04:21.383Z,18.00
2022-08-17T04:05:30.226Z,18.00
2022-08-17T04:06:36.299Z,17.90
2022-08-17T04:07:37.896Z,18.00
2022-08-17T04:08:39.507Z,18.00
2022-08-17T04:09:42.821Z,18.00
2022-08-17T04:10:45.224Z,18.00
2022-08-17T04:11:47.208Z,18.00
2022-08-17T04:12:52.926Z,17.90
2022-08-17T04:13:56.024Z,18.00
2022-08-17T04:14:57.914Z,17.90
2022-08-17T04:15:59.909Z,17.90
2022-08-17T04:17:01.982Z,18.00
2022-08-17T04:18:03.670Z,18.00
2022-08-17T04:19:06.113Z,18.00
2022-08-17T04:20:08.343Z,18.00
2022-08-17T04:21:10.236Z,18.00
2022-08-17T04:22:11.862Z,18.00
2022-08-17T04:23:36.446Z,18.00
2022-08-17T04:24:38.055Z,17.90
2022-08-17T04:25:45.098Z,18.00
2022-08-17T04:26:52.489Z,18.00
2022-08-17T04:27:56.778Z,18.00
2022-08-17T04:28:58.577Z,18.00
2022-08-17T04:30:00.556Z,17.90
2022-08-17T04:31:02.142Z,17.90
2022-08-17T04:32:04.312Z,17.90
2022-08-17T04:33:09.284Z,17.80
2022-08-17T04:34:11.820Z,17.80
2022-08-17T04:35:18.700Z,17.70
2022-08-17T04:36:20.459Z,17.70
2022-08-17T04:37:22.064Z,17.70
2022-08-17T04:38:26.519Z,17.60
2022-08-17T04:39:28.962Z,17.60
2022-08-17T04:40:49.386Z,17.60
2022-08-17T04:42:17.097Z,17.50
2022-08-17T04:43:21.445Z,17.50
2022-08-17T04:44:36.910Z,17.40
2022-08-17T04:45:55.204Z,17.40
2022-08-17T04:46:58.051Z,17.50
2022-08-17T04:48:01.586Z,17.50
2022-08-17T04:49:06.411Z,17.50
2022-08-17T04:50:08.469Z,17.50
2022-08-17T04:51:13.688Z,17.60
2022-08-17T04:52:29.775Z,17.60
2022-08-17T04:53:37.606Z,17.60
2022-08-17T04:54:39.209Z,17.60
2022-08-17T04:55:41.644Z,17.60
2022-08-17T04:56:44.101Z,17.60
2022-08-17T04:57:45.738Z,17.70
2022-08-17T04:58:50.331Z,17.70
2022-08-17T04:59:52.036Z,17.70
2022-08-17T05:00:53.653Z,17.70
2022-08-17T05:01:55.320Z,17.70
2022-08-17T05:02:57.422Z,17.70
2022-08-17T05:04:02.344Z,17.80
2022-08-17T05:05:29.522Z,17.80
2022-08-17T05:06:33.153Z,17.80
2022-08-17T05:07:34.721Z,17.80
2022-08-17T05:08:36.353Z,17.80
2022-08-17T05:09:37.969Z,17.80
2022-08-17T05:10:45.129Z,17.80
2022-08-17T05:11:47.789Z,17.90
2022-08-17T05:13:08.190Z,17.90
2022-08-17T05:14:11.721Z,17.80
2022-08-17T05:15:16.141Z,17.80
2022-08-17T05:16:19.842Z,17.90
2022-08-17T05:17:21.406Z,17.80
2022-08-17T05:18:24.518Z,17.80
2022-08-17T05:19:26.327Z,17.80
2022-08-17T05:20:28.546Z,17.90
2022-08-17T05:21:30.299Z,17.90
2022-08-17T05:22:31.879Z,17.90
2022-08-17T05:23:41.690Z,17.90
2022-08-17T05:24:53.467Z,17.90
2022-08-17T05:25:56.362Z,17.90
2022-08-17T05:27:02.608Z,18.00
2022-08-17T05:28:09.600Z,18.10
2022-08-17T05:29:11.234Z,18.10
2022-08-17T05:30:13.651Z,18.20
2022-08-17T05:31:15.309Z,18.30
2022-08-17T05:32:38.770Z,18.30
2022-08-17T05:33:44.518Z,18.30
2022-08-17T05:34:48.279Z,18.40
2022-08-17T05:35:52.928Z,18.40
2022-08-17T05:36:54.495Z,18.50
2022-08-17T05:37:57.735Z,18.50
2022-08-17T05:38:59.361Z,18.50
2022-08-17T05:40:00.995Z,18.60
2022-08-17T05:41:05.633Z,18.60
2022-08-17T05:42:07.242Z,18.60
2022-08-17T05:43:08.852Z,18.70
2022-08-17T05:44:10.438Z,18.80
2022-08-17T05:45:12.980Z,18.80
2022-08-17T05:46:25.535Z,18.80
2022-08-17T05:47:27.703Z,18.80
2022-08-17T05:48:39.632Z,18.80
2022-08-17T05:49:41.966Z,18.90
2022-08-17T05:51:10.801Z,19.00
2022-08-17T05:52:43.309Z,19.00
2022-08-17T05:54:00.818Z,19.00
2022-08-17T05:55:19.695Z,19.10
2022-08-17T05:57:06.198Z,19.20
2022-08-17T05:58:48.151Z,19.30
2022-08-17T05:59:57.689Z,19.30
2022-08-17T06:01:08.986Z,19.40
2022-08-17T06:02:47.852Z,19.40
2022-08-17T06:03:53.755Z,19.40
2022-08-17T06:05:25.514Z,19.50
2022-08-17T06:06:32.495Z,19.50
2022-08-17T06:07:55.622Z,19.60
2022-08-17T06:09:05.455Z,19.70
2022-08-17T06:10:30.226Z,19.70
2022-08-17T06:11:44.642Z,19.80
2022-08-17T06:13:10.437Z,19.80
2022-08-17T06:14:46.584Z,19.90
2022-08-17T06:16:32.842Z,19.90
2022-08-17T06:17:33.027Z,19.90
2022-08-17T06:18:46.058Z,20.00
2022-08-17T06:19:55.727Z,19.90
2022-08-17T06:21:02.071Z,19.90
2022-08-17T06:22:05.779Z,20.00
2022-08-17T06:23:13.109Z,19.90
2022-08-17T06:24:27.429Z,20.00
2022-08-17T06:25:46.147Z,20.10
2022-08-17T06:26:48.795Z,20.30
2022-08-17T06:27:59.348Z,20.40
2022-08-17T06:29:21.320Z,20.50
2022-08-17T06:30:28.908Z,20.60
2022-08-17T06:31:51.398Z,20.60
2022-08-17T06:32:56.125Z,20.60
2022-08-17T06:34:00.072Z,20.70
2022-08-17T06:35:02.826Z,20.60
2022-08-17T06:36:40.088Z,20.50
2022-08-17T06:37:50.302Z,20.50
2022-08-17T06:38:51.849Z,20.30
2022-08-17T06:39:59.037Z,20.30
2022-08-17T06:41:18.894Z,20.40
2022-08-17T06:42:54.909Z,20.40
2022-08-17T06:44:43.669Z,20.60
2022-08-17T06:45:56.960Z,20.60
2022-08-17T06:47:28.347Z,20.60
2022-08-17T06:48:52.233Z,20.70
2022-08-17T06:50:14.408Z,20.80
2022-08-17T06:51:29.283Z,20.80
2022-08-17T06:52:47.170Z,20.90
2022-08-17T06:53:59.509Z,20.90
2022-08-17T06:55:18.644Z,21.00
2022-08-17T07:07:41.804Z,21.30
2022-08-17T07:08:57.612Z,21.30
2022-08-17T07:10:00.983Z,21.40
2022-08-17T07:11:07.633Z,21.50
2022-08-17T07:12:16.509Z,21.60
2022-08-17T07:13:37.292Z,21.60
2022-08-17T07:14:48.037Z,21.60
2022-08-17T07:15:57.085Z,21.60
2022-08-17T07:17:04.009Z,21.70
2022-08-17T07:18:05.721Z,21.80
2022-08-17T07:19:10.862Z,21.90
2022-08-17T07:20:17.735Z,21.90
2022-08-17T07:21:30.613Z,22.00
2022-08-17T07:22:57.383Z,22.10
2022-08-17T07:24:30.147Z,22.10
2022-08-17T07:25:32.283Z,22.20
2022-08-17T07:26:33.980Z,22.20
2022-08-17T07:27:45.756Z,22.30
2022-08-17T07:28:47.906Z,22.30
2022-08-17T07:30:00.696Z,22.20
2022-08-17T07:31:04.741Z,22.20
2022-08-17T07:32:32.348Z,22.30
2022-08-17T07:33:36.732Z,22.50
2022-08-17T07:35:11.788Z,22.50
2022-08-17T07:36:39.894Z,22.60
2022-08-17T07:37:44.805Z,22.80
2022-08-17T07:39:00.211Z,22.90
2022-08-17T07:40:19.301Z,22.90
2022-08-17T07:41:21.104Z,23.00
2022-08-17T07:42:23.034Z,23.00
2022-08-17T07:43:41.637Z,23.10
2022-08-17T07:44:56.158Z,23.10
2022-08-17T07:46:25.146Z,23.20
2022-08-17T07:47:45.390Z,23.20
2022-08-17T07:48:53.659Z,23.30
2022-08-17T07:49:55.322Z,23.50
2022-08-17T07:50:57.210Z,23.50
2022-08-17T07:52:48.549Z,23.60
2022-08-17T07:53:26.141Z,23.70
2022-08-17T07:54:29.762Z,23.80
2022-08-17T07:55:34.872Z,23.60
2022-08-17T07:56:56.877Z,23.60
2022-08-17T07:58:00.069Z,23.70
2022-08-17T07:59:09.084Z,23.60
2022-08-17T08:00:26.623Z,23.70
2022-08-17T08:01:39.744Z,23.70
2022-08-17T08:02:47.556Z,23.70
2022-08-17T08:03:52.574Z,23.70
2022-08-17T08:05:30.659Z,23.80
2022-08-17T08:06:49.642Z,23.90
2022-08-17T08:08:05.782Z,23.90
2022-08-17T08:09:07.479Z,23.80
2022-08-17T08:10:29.871Z,23.90
2022-08-17T08:11:34.444Z,23.90
2022-08-17T08:12:38.859Z,24.10
2022-08-17T08:13:43.792Z,24.10
2022-08-17T08:14:59.858Z,24.10
2022-08-17T08:16:25.451Z,24.20
2022-08-17T08:17:35.464Z,24.40
2022-08-17T08:18:55.042Z,24.60
2022-08-17T08:20:00.243Z,24.70
2022-08-17T08:21:18.318Z,24.60
2022-08-17T08:22:34.900Z,24.70
2022-08-17T08:23:36.984Z,24.90
2022-08-17T08:24:51.400Z,25.10
2022-08-17T08:25:59.672Z,25.20
2022-08-17T08:27:27.376Z,25.30
2022-08-17T08:28:52.630Z,25.50
2022-08-17T08:29:54.254Z,25.40
2022-08-17T08:31:24.321Z,25.50
2022-08-17T08:32:37.974Z,25.70
2022-08-17T08:33:51.807Z,25.60
2022-08-17T08:35:07.371Z,25.60
2022-08-17T08:37:15.361Z,25.60
2022-08-17T08:38:56.807Z,25.50
2022-08-17T08:40:19.673Z,25.50
2022-08-17T08:41:44.689Z,25.50
2022-08-17T08:43:04.032Z,25.70
2022-08-17T08:45:01.052Z,26.00
2022-08-17T08:46:03.909Z,26.10
2022-08-17T08:47:08.229Z,26.30
2022-08-17T08:48:55.644Z,26.40
2022-08-17T08:50:37.541Z,26.60
2022-08-17T08:51:47.033Z,26.60
2022-08-17T08:52:56.934Z,26.70
2022-08-17T08:54:16.728Z,26.60
2022-08-17T08:56:02.866Z,26.60
2022-08-17T08:57:25.679Z,26.70
2022-08-17T08:58:45.015Z,26.80
2022-08-17T09:00:12.454Z,27.00
2022-08-17T09:01:27.695Z,27.10
2022-08-17T09:02:59.184Z,27.30
2022-08-17T09:04:23.246Z,27.50
2022-08-17T09:05:54.248Z,27.70
2022-08-17T09:06:58.818Z,27.60
2022-08-17T09:08:28.208Z,27.70
2022-08-17T09:10:50.445Z,27.90
2022-08-17T09:12:05.007Z,27.80
2022-08-17T09:13:30.751Z,27.90
2022-08-17T09:14:45.073Z,28.00
2022-08-17T09:15:57.258Z,28.10
2022-08-17T09:17:12.635Z,28.00
2022-08-17T09:19:01.231Z,28.00
2022-08-17T09:20:01.094Z,28.00
2022-08-17T09:21:13.519Z,28.20
2022-08-17T09:22:44.766Z,28.30
2022-08-17T09:24:26.581Z,28.20
2022-08-17T09:25:32.675Z,28.40
2022-08-17T09:26:48.516Z,28.50
2022-08-17T09:28:03.871Z,28.70
2022-08-17T09:29:10.830Z,28.70
2022-08-17T09:30:12.961Z,28.80
2022-08-17T09:31:21.636Z,28.90
2022-08-17T09:32:44.312Z,28.90
2022-08-17T09:33:48.559Z,29.00
2022-08-17T09:34:59.958Z,29.00
2022-08-17T09:36:25.950Z,29.10
2022-08-17T09:37:49.599Z,29.20
2022-08-17T09:38:58.454Z,29.30
2022-08-17T09:40:15.679Z,29.50
2022-08-17T09:41:23.806Z,29.50
2022-08-17T09:42:33.055Z,29.60
2022-08-17T09:43:46.566Z,29.80
2022-08-17T09:44:58.748Z,30.00
2022-08-17T09:46:11.266Z,30.00
2022-08-17T09:47:26.045Z,30.10
2022-08-17T09:48:50.173Z,30.50
2022-08-17T09:49:56.569Z,30.60
2022-08-17T09:51:09.649Z,30.70
2022-08-17T09:52:21.817Z,30.80
2022-08-17T09:53:23.680Z,30.70
2022-08-17T09:54:44.416Z,30.80
2022-08-17T09:56:08.991Z,30.90
2022-08-17T09:57:31.855Z,30.90
2022-08-17T09:58:52.957Z,31.00
2022-08-17T09:59:57.560Z,30.90
2022-08-17T10:01:21.244Z,31.00
2022-08-17T10:02:44.329Z,31.00
2022-08-17T10:04:20.309Z,31.20
2022-08-17T10:05:32.098Z,31.40
2022-08-17T10:06:45.009Z,31.50
2022-08-17T10:07:57.654Z,31.60
2022-08-17T10:09:11.666Z,31.60
2022-08-17T10:10:18.003Z,31.70
2022-08-17T10:12:17.742Z,31.70
2022-08-17T10:13:37.883Z,31.20
2022-08-17T10:15:13.530Z,30.80
2022-08-17T10:16:33.882Z,30.90
2022-08-17T10:18:13.069Z,31.00
2022-08-17T10:20:06.502Z,31.30
2022-08-17T10:21:30.513Z,31.60
2022-08-17T10:23:06.621Z,31.50
2022-08-17T10:24:37.479Z,31.50
2022-08-17T10:26:06.535Z,31.50
2022-08-17T10:27:15.876Z,31.50
2022-08-17T10:28:28.746Z,31.50
2022-08-17T10:29:48.655Z,31.40
2022-08-17T10:31:16.659Z,31.40
2022-08-17T10:32:40.760Z,31.60
2022-08-17T10:34:19.090Z,31.90
2022-08-17T10:35:39.343Z,31.90
2022-08-17T10:38:36.454Z,32.30
2022-08-17T10:39:57.358Z,32.40
2022-08-17T10:41:24.398Z,32.60
2022-08-17T10:42:34.637Z,32.80
2022-08-17T10:44:36.659Z,32.90
2022-08-17T10:45:26.242Z,32.70
2022-08-17T10:46:52.106Z,32.70
2022-08-17T10:48:36.531Z,32.60
2022-08-17T10:49:53.589Z,32.70
2022-08-17T10:51:01.759Z,32.80
2022-08-17T10:52:24.825Z,32.90
2022-08-17T10:53:33.036Z,32.70
2022-08-17T10:54:45.385Z,32.40
2022-08-17T10:56:19.007Z,32.30
2022-08-17T10:57:29.347Z,32.40
2022-08-17T10:58:57.248Z,32.30
2022-08-17T10:59:59.709Z,32.10
2022-08-17T11:01:03.955Z,32.00
2022-08-17T11:02:31.541Z,31.90
2022-08-17T11:03:33.607Z,31.70
2022-08-17T11:05:00.313Z,31.60
2022-08-17T11:06:14.248Z,31.80
2022-08-17T11:07:21.800Z,31.90
2022-08-17T11:08:39.928Z,32.00
2022-08-17T11:10:00.634Z,32.10
2022-08-17T11:11:40.716Z,32.10
2022-08-17T11:13:11.353Z,31.80
2022-08-17T11:14:39.785Z,31.80
2022-08-17T11:16:10.855Z,31.90
2022-08-17T11:17:40.715Z,31.90
2022-08-17T11:19:09.973Z,31.90
2022-08-17T11:20:37.106Z,32.10
2022-08-17T11:22:17.513Z,32.40
2022-08-17T11:23:53.128Z,32.70
2022-08-17T11:24:55.672Z,32.80
2022-08-17T11:26:04.154Z,32.90
2022-08-17T11:27:28.662Z,32.90
2022-08-17T11:28:35.784Z,32.90
2022-08-17T11:30:07.711Z,32.80
2022-08-17T11:31:37.801Z,32.70
2022-08-17T11:32:54.408Z,32.50
2022-08-17T11:34:02.003Z,32.20
2022-08-17T11:35:12.520Z,32.30
2022-08-17T11:36:26.128Z,32.30
2022-08-17T11:37:53.193Z,32.40
2022-08-17T11:39:04.478Z,32.40
2022-08-17T11:40:21.396Z,32.50
2022-08-17T11:41:36.098Z,32.50
2022-08-17T11:43:08.187Z,32.50
2022-08-17T11:44:16.765Z,32.40
2022-08-17T11:45:33.048Z,32.40
2022-08-17T11:47:13.772Z,32.40
2022-08-17T11:49:03.112Z,32.50
2022-08-17T11:50:49.583Z,32.50
2022-08-17T11:52:00.274Z,32.30
2022-08-17T11:53:03.032Z,32.20
2022-08-17T11:55:43.116Z,32.10
2022-08-17T11:56:51.034Z,31.90
2022-08-17T11:58:01.579Z,31.90
2022-08-17T11:59:23.257Z,31.70
2022-08-17T12:00:51.967Z,31.60
2022-08-17T12:01:56.665Z,31.50
2022-08-17T12:03:24.882Z,31.50
2022-08-17T12:04:35.425Z,31.40
2022-08-17T12:05:37.300Z,31.30
2022-08-17T12:07:10.966Z,31.30
2022-08-17T12:08:18.960Z,31.20
2022-08-17T12:09:29.198Z,31.10
2022-08-17T12:10:36.169Z,31.10
2022-08-17T12:12:04.598Z,31.00
2022-08-17T12:13:12.548Z,31.00
2022-08-17T12:14:39.882Z,30.90
2022-08-17T12:15:49.933Z,30.90
2022-08-17T12:17:06.730Z,31.00
2022-08-17T12:18:18.309Z,31.00
2022-08-17T12:19:21.904Z,31.10
2022-08-17T12:20:38.467Z,31.00
2022-08-17T12:21:50.799Z,31.00
2022-08-17T12:23:15.887Z,31.00
2022-08-17T12:24:39.719Z,30.90
2022-08-17T12:25:49.863Z,31.00
2022-08-17T12:26:58.605Z,31.10
2022-08-17T12:28:05.623Z,31.10
2022-08-17T12:29:18.484Z,31.20
2022-08-17T12:30:38.733Z,31.30
2022-08-17T12:31:56.081Z,31.30
2022-08-17T12:32:58.650Z,31.40
2022-08-17T12:34:02.528Z,31.40
2022-08-17T12:35:19.527Z,31.50
2022-08-17T12:36:26.800Z,31.60
2022-08-17T12:40:22.572Z,31.70
2022-08-17T12:41:38.886Z,31.70
2022-08-17T12:42:41.428Z,31.70
2022-08-17T12:43:44.614Z,31.70
2022-08-17T12:44:46.332Z,31.70
2022-08-17T12:46:00.920Z,31.60
2022-08-17T12:47:22.172Z,31.50
2022-08-17T12:48:26.564Z,31.50
2022-08-17T12:49:48.187Z,31.40
2022-08-17T12:50:51.067Z,31.40
2022-08-17T12:52:25.285Z,31.40
2022-08-17T12:53:30.454Z,31.40
2022-08-17T12:54:40.625Z,31.40
2022-08-17T12:55:44.281Z,31.30
2022-08-17T12:56:46.310Z,31.30
2022-08-17T12:57:54.086Z,31.20
2022-08-17T12:58:56.631Z,31.10
2022-08-17T13:00:08.955Z,31.10
2022-08-17T13:01:16.259Z,31.00
2022-08-17T13:02:28.455Z,30.90
2022-08-17T13:05:06.993Z,30.80
2022-08-17T13:06:12.072Z,30.70
2022-08-17T13:07:26.950Z,30.70
2022-08-17T13:08:38.040Z,30.70
2022-08-17T13:09:40.266Z,30.70
2022-08-17T13:10:42.445Z,30.70
2022-08-17T13:11:53.238Z,30.70
2022-08-17T13:12:56.176Z,30.70
2022-08-17T13:14:09.754Z,30.60
2022-08-17T13:15:21.588Z,30.70
2022-08-17T13:16:29.989Z,30.60
2022-08-17T13:17:34.946Z,30.70
2022-08-17T13:18:43.373Z,30.60
2022-08-17T13:19:50.470Z,30.70
2022-08-17T13:20:54.039Z,30.70
2022-08-17T13:21:58.594Z,30.70
2022-08-17T13:23:11.433Z,30.70
2022-08-17T13:24:23.863Z,30.70
2022-08-17T13:25:27.156Z,30.70
2022-08-17T13:27:34.170Z,30.70
2022-08-17T13:28:37.371Z,30.70
2022-08-17T13:29:51.532Z,30.60
2022-08-17T13:31:30.226Z,30.50
2022-08-17T13:32:43.866Z,30.50
2022-08-17T13:33:47.095Z,30.50
2022-08-17T13:35:14.993Z,30.50
2022-08-17T13:36:30.309Z,30.30
2022-08-17T13:37:36.362Z,30.30
2022-08-17T13:38:49.401Z,30.30
2022-08-17T13:39:51.684Z,30.20
2022-08-17T13:40:53.672Z,30.30
2022-08-17T13:41:56.012Z,30.30
2022-08-17T13:42:58.889Z,30.40
2022-08-17T13:44:01.476Z,30.30
2022-08-17T13:45:34.919Z,30.30
2022-08-17T13:46:32.899Z,30.30
2022-08-17T13:47:34.596Z,30.30
2022-08-17T13:48:36.435Z,30.30
2022-08-17T13:49:49.028Z,30.30
2022-08-17T13:50:56.966Z,30.30
2022-08-17T13:51:58.653Z,30.30
2022-08-17T13:53:00.447Z,30.30
2022-08-17T13:54:06.564Z,30.30
2022-08-17T13:55:22.652Z,30.30
2022-08-17T13:56:33.294Z,30.30
2022-08-17T13:57:46.237Z,30.30
2022-08-17T13:58:55.933Z,30.30
2022-08-17T14:00:11.897Z,30.30
2022-08-17T14:01:31.139Z,30.30
2022-08-17T14:02:32.770Z,30.30
2022-08-17T14:03:34.382Z,30.30
2022-08-17T14:04:36.440Z,30.30
2022-08-17T14:05:39.320Z,30.20
2022-08-17T14:07:22.115Z,30.10
2022-08-17T14:08:23.908Z,30.10
2022-08-17T14:09:38.027Z,30.10
2022-08-17T14:10:39.948Z,30.00
2022-08-17T14:11:42.959Z,29.90
2022-08-17T14:12:45.854Z,29.90
2022-08-17T14:13:47.788Z,29.80
2022-08-17T14:14:49.683Z,29.80
2022-08-17T14:15:54.662Z,29.80
2022-08-17T14:16:58.687Z,29.80
2022-08-17T14:18:00.471Z,29.80
2022-08-17T14:19:02.198Z,29.80
2022-08-17T14:20:05.403Z,29.80
2022-08-17T14:21:08.524Z,29.80
2022-08-17T14:22:18.586Z,29.80
2022-08-17T14:23:20.914Z,29.70
2022-08-17T14:24:22.441Z,29.80
2022-08-17T14:25:27.511Z,29.80
2022-08-17T14:26:29.113Z,29.90
2022-08-17T14:27:33.972Z,30.00
2022-08-17T14:28:47.781Z,30.10
2022-08-17T14:29:57.917Z,30.10
2022-08-17T14:31:01.551Z,30.10
2022-08-17T14:32:09.578Z,30.20
2022-08-17T14:33:11.825Z,30.20
2022-08-17T14:34:13.586Z,30.30
2022-08-17T14:35:16.146Z,30.30
2022-08-17T14:36:18.381Z,30.30
2022-08-17T14:37:21.474Z,30.20
2022-08-17T14:38:23.634Z,30.10
2022-08-17T14:39:25.580Z,30.20
2022-08-17T14:40:28.011Z,30.20
2022-08-17T14:41:29.733Z,30.20
2022-08-17T14:42:33.702Z,30.20
2022-08-17T14:43:35.543Z,30.20
2022-08-17T14:44:40.019Z,30.30
2022-08-17T14:45:42.729Z,30.30
2022-08-17T14:46:45.217Z,30.30
2022-08-17T14:47:46.925Z,30.30
2022-08-17T14:48:51.737Z,30.30
2022-08-17T14:49:57.247Z,30.40
2022-08-17T14:50:58.874Z,30.50
2022-08-17T14:52:01.389Z,30.40
2022-08-17T14:53:05.061Z,30.40
2022-08-17T14:54:06.931Z,30.40
2022-08-17T14:55:09.775Z,30.50
2022-08-17T14:56:11.626Z,30.50
2022-08-17T14:57:23.437Z,30.40
2022-08-17T14:58:34.846Z,30.50
2022-08-17T14:59:40.404Z,30.60
2022-08-17T15:00:43.784Z,30.70
2022-08-17T15:01:47.718Z,30.70
2022-08-17T15:02:55.729Z,30.70
2022-08-17T15:03:57.322Z,30.90
2022-08-17T15:05:01.785Z,30.90
2022-08-17T15:06:04.312Z,31.00
2022-08-17T15:07:06.441Z,31.00
2022-08-17T15:08:08.110Z,31.00
2022-08-17T15:09:09.902Z,31.10
2022-08-17T15:10:15.988Z,31.20
2022-08-17T15:11:17.876Z,31.30
2022-08-17T15:12:26.436Z,31.50
2022-08-17T15:13:33.590Z,31.70
2022-08-17T15:14:36.266Z,31.90
2022-08-17T15:15:37.834Z,32.10
2022-08-17T15:16:39.627Z,32.30
2022-08-17T15:17:55.131Z,32.40
2022-08-17T15:18:56.809Z,32.60
2022-08-17T15:19:58.411Z,32.60
2022-08-17T15:21:02.289Z,32.60
2022-08-17T15:22:03.887Z,32.70
2022-08-17T15:23:06.923Z,32.70
2022-08-17T15:24:09.219Z,32.90
2022-08-17T15:25:12.509Z,33.00
2022-08-17T15:26:14.223Z,33.10
2022-08-17T15:27:15.839Z,33.20
2022-08-17T15:28:27.529Z,33.10
2022-08-17T15:29:29.372Z,33.00
2022-08-17T15:30:31.495Z,32.90
2022-08-17T15:31:33.694Z,32.90
2022-08-17T15:32:38.075Z,32.70
2022-08-17T15:33:39.766Z,32.70